Snoqualmie River: Snoqualmie Falls station

back to: Snoqualmie river
Snoqualmie Falls station Summary - (NOAA Hydrograph: SQUW1)
flood stage: 13.43 ft
Latest reading:
Thu11/26 03:10 am 6.64 ft 3673 cfs (-168/hr)
Past 24hr max:
Wed11/25 04:15 am 7.06 ft 4273 cfs
Forecasted crests: (published Wed 11/25/20 02:35 pm)
Sat11/28 04:00 pm 5.96 ft 2810 cfs

Snoqualmie Falls station Details

Latest Readings

Last 100 Readings:
Thu11/26 03:10 am 6.64 ft 3673 cfs
Thu11/26 03:05 am 6.65 ft 3687 cfs
Thu11/26 03:00 am 6.65 ft 3687 cfs
Thu11/26 02:55 am 6.65 ft 3687 cfs
Thu11/26 02:50 am 6.65 ft 3687 cfs
Thu11/26 02:45 am 6.64 ft 3673 cfs
Thu11/26 02:40 am 6.67 ft 3714 cfs
Thu11/26 02:35 am 6.66 ft 3701 cfs
Thu11/26 02:30 am 6.67 ft 3714 cfs
Thu11/26 02:25 am 6.66 ft 3701 cfs
Thu11/26 02:20 am 6.68 ft 3728 cfs
Thu11/26 02:15 am 6.67 ft 3714 cfs
Thu11/26 02:10 am 6.66 ft 3701 cfs
Thu11/26 02:05 am 6.68 ft 3728 cfs
Thu11/26 02:00 am 6.69 ft 3742 cfs
Thu11/26 01:55 am 6.68 ft 3728 cfs
Thu11/26 01:50 am 6.68 ft 3728 cfs
Thu11/26 01:45 am 6.68 ft 3728 cfs
Thu11/26 01:40 am 6.69 ft 3742 cfs
Thu11/26 01:35 am 6.69 ft 3742 cfs
Thu11/26 01:30 am 6.69 ft 3742 cfs
Thu11/26 01:25 am 6.71 ft 3770 cfs
Thu11/26 01:20 am 6.7 ft 3756 cfs
Thu11/26 01:15 am 6.7 ft 3756 cfs
Thu11/26 01:10 am 6.72 ft 3784 cfs
Thu11/26 01:05 am 6.71 ft 3770 cfs
Thu11/26 01:00 am 6.71 ft 3770 cfs
Thu11/26 12:55 am 6.72 ft 3784 cfs
Thu11/26 12:50 am 6.72 ft 3784 cfs
Thu11/26 12:45 am 6.72 ft 3784 cfs
Thu11/26 12:40 am 6.74 ft 3811 cfs
Thu11/26 12:35 am 6.73 ft 3798 cfs
Thu11/26 12:30 am 6.72 ft 3784 cfs
Thu11/26 12:25 am 6.73 ft 3798 cfs
Thu11/26 12:20 am 6.75 ft 3825 cfs
Thu11/26 12:15 am 6.75 ft 3825 cfs
Thu11/26 12:10 am 6.75 ft 3825 cfs
Thu11/26 12:05 am 6.74 ft 3811 cfs
Thu11/26 12:00 am 6.76 ft 3839 cfs
Wed11/25 11:55 pm 6.76 ft 3839 cfs
Wed11/25 11:50 pm 6.76 ft 3839 cfs
Wed11/25 11:45 pm 6.75 ft 3825 cfs
Wed11/25 11:40 pm 6.76 ft 3839 cfs
Wed11/25 11:35 pm 6.76 ft 3839 cfs
Wed11/25 11:30 pm 6.76 ft 3839 cfs
Wed11/25 11:25 pm 6.77 ft 3853 cfs
Wed11/25 11:20 pm 6.77 ft 3853 cfs
Wed11/25 11:15 pm 6.78 ft 3868 cfs
Wed11/25 11:10 pm 6.77 ft 3853 cfs
Wed11/25 11:05 pm 6.77 ft 3853 cfs
Wed11/25 11:00 pm 6.78 ft 3868 cfs
Wed11/25 10:55 pm 6.78 ft 3868 cfs
Wed11/25 10:50 pm 6.79 ft 3882 cfs
Wed11/25 10:45 pm 6.77 ft 3853 cfs
Wed11/25 10:40 pm 6.79 ft 3882 cfs
Wed11/25 10:35 pm 6.78 ft 3868 cfs
Wed11/25 10:30 pm 6.8 ft 3896 cfs
Wed11/25 10:25 pm 6.8 ft 3896 cfs
Wed11/25 10:20 pm 6.79 ft 3882 cfs
Wed11/25 10:15 pm 6.78 ft 3868 cfs
Wed11/25 10:10 pm 6.79 ft 3882 cfs
Wed11/25 10:05 pm 6.8 ft 3896 cfs
Wed11/25 10:00 pm 6.79 ft 3882 cfs
Wed11/25 09:55 pm 6.8 ft 3896 cfs
Wed11/25 09:50 pm 6.8 ft 3896 cfs
Wed11/25 09:45 pm 6.8 ft 3896 cfs
Wed11/25 09:40 pm 6.8 ft 3896 cfs
Wed11/25 09:35 pm 6.8 ft 3896 cfs
Wed11/25 09:30 pm 6.81 ft 3910 cfs
Wed11/25 09:25 pm 6.81 ft 3910 cfs
Wed11/25 09:20 pm 6.82 ft 3924 cfs
Wed11/25 09:15 pm 6.81 ft 3910 cfs
Wed11/25 09:10 pm 6.81 ft 3910 cfs
Wed11/25 09:05 pm 6.82 ft 3924 cfs
Wed11/25 09:00 pm 6.81 ft 3910 cfs
Wed11/25 08:55 pm 6.82 ft 3924 cfs
Wed11/25 08:50 pm 6.83 ft 3938 cfs
Wed11/25 08:45 pm 6.83 ft 3938 cfs
Wed11/25 08:40 pm 6.84 ft 3952 cfs
Wed11/25 08:35 pm 6.83 ft 3938 cfs
Wed11/25 08:30 pm 6.83 ft 3938 cfs
Wed11/25 08:25 pm 6.83 ft 3938 cfs
Wed11/25 08:20 pm 6.84 ft 3952 cfs
Wed11/25 08:15 pm 6.83 ft 3938 cfs
Wed11/25 08:10 pm 6.85 ft 3967 cfs
Wed11/25 08:05 pm 6.83 ft 3938 cfs
Wed11/25 08:00 pm 6.86 ft 3981 cfs
Wed11/25 07:55 pm 6.84 ft 3952 cfs
Wed11/25 07:50 pm 6.84 ft 3952 cfs
Wed11/25 07:45 pm 6.85 ft 3967 cfs
Wed11/25 07:40 pm 6.84 ft 3952 cfs
Wed11/25 07:35 pm 6.85 ft 3967 cfs
Wed11/25 07:30 pm 6.85 ft 3967 cfs
Wed11/25 07:25 pm 6.84 ft 3952 cfs
Wed11/25 07:20 pm 6.85 ft 3967 cfs
Wed11/25 07:15 pm 6.86 ft 3981 cfs
Wed11/25 07:10 pm 6.86 ft 3981 cfs
Wed11/25 07:05 pm 6.85 ft 3967 cfs
Wed11/25 07:00 pm 6.87 ft 3995 cfs
Wed11/25 06:55 pm 6.87 ft 3995 cfs

Latest Forecasts

Currently Forecasted Readings:
Wed11/25 04:00 pm 7.02 ft 4209 cfs
Wed11/25 10:00 pm 6.73 ft 3792 cfs
Thu11/26 04:00 am 6.39 ft 3336 cfs
Thu11/26 10:00 am 6.08 ft 2957 cfs
Thu11/26 04:00 pm 5.87 ft 2701 cfs
Thu11/26 10:00 pm 5.72 ft 2532 cfs
Fri11/27 04:00 am 5.59 ft 2392 cfs
Fri11/27 10:00 am 5.45 ft 2245 cfs
Fri11/27 04:00 pm 5.32 ft 2111 cfs
Fri11/27 10:00 pm 5.23 ft 2017 cfs
Sat11/28 04:00 am 5.37 ft 2155 cfs
Sat11/28 10:00 am 5.73 ft 2546 cfs
Sat11/28 04:00 pm 5.96 ft 2810 cfs
Sat11/28 10:00 pm 5.91 ft 2754 cfs
Sun11/29 04:00 am 5.7 ft 2510 cfs
Sun11/29 10:00 am 5.45 ft 2245 cfs
Sun11/29 04:00 pm 5.24 ft 2033 cfs
Sun11/29 10:00 pm 5.09 ft 1882 cfs
Mon11/30 04:00 am 4.97 ft 1772 cfs
Mon11/30 10:00 am 4.89 ft 1704 cfs
Mon11/30 04:00 pm 4.86 ft 1677 cfs
Mon11/30 10:00 pm 4.83 ft 1648 cfs
Tue12/01 04:00 am 4.76 ft 1591 cfs
Tue12/01 10:00 am 4.68 ft 1521 cfs
Tue12/01 04:00 pm 4.61 ft 1458 cfs
Tue12/01 10:00 pm 4.54 ft 1403 cfs
Wed12/02 04:00 am 4.48 ft 1355 cfs
Wed12/02 10:00 am 4.42 ft 1313 cfs
Wed12/02 04:00 pm 4.38 ft 1276 cfs
Wed12/02 10:00 pm 4.35 ft 1242 cfs
Thu12/03 04:00 am 4.31 ft 1212 cfs
Thu12/03 10:00 am 4.28 ft 1184 cfs
Thu12/03 04:00 pm 4.25 ft 1158 cfs
Thu12/03 10:00 pm 4.22 ft 1134 cfs
Fri12/04 04:00 am 4.18 ft 1112 cfs
Fri12/04 10:00 am 4.15 ft 1091 cfs
Fri12/04 04:00 pm 4.12 ft 1072 cfs
Fri12/04 10:00 pm 4.08 ft 1053 cfs
Sat12/05 04:00 am 4.05 ft 1037 cfs

Snoqualmie River flood gauge data supplied by the
National Weather Service Northwest River Forecast Center.

Sign up for Floodzilla alerts.